Time;durP1;ratioP1;P1;durP2;ratioP2;P2;SDS_P1;SDS_P2;PMS_P1;PMS_P2;Temp;Humidity;BMP_temperature;BMP_pressure;BME280_temperature;BME280_humidity;BME280_pressure;Samples;Min_cycle;Max_cycle;Signal;HPM_P1;HPM_P2
2024/02/06 06:32:10;;;;;;;8.20;2.58;;;;;;;;;;4805634;24;20929;-84
2024/02/06 06:34:41;;;;;;;5.53;2.17;;;;;;;;;;4757423;24;20064;-86
2024/02/06 06:37:07;;;;;;;9.67;3.07;;;;;;;;;;4752271;30;20063;-83
2024/02/06 06:40:01;;;;;;;;;;;;;;;;;;;;;
2024/02/06 16:49:38;;;;;;;17.67;1.42;;;;;;;;;;5149245;24;20054;-86
2024/02/06 16:52:04;;;;;;;2.45;1.00;;;;;;;;;;4744883;30;20051;-86
2024/02/06 17:41:39;;;;;;;12.05;3.55;;;;;;;;;;1669717;24;20060;-81
2024/02/06 17:44:11;;;;;;;18.23;2.70;;;;;;;;;;4732865;30;20040;-80
2024/02/06 17:46:47;;;;;;;11.30;2.65;;;;;;;;;;4745173;30;20051;-84
2024/02/06 17:52:07;;;;;;;11.27;3.33;;;;;;;;;;3136452;24;20071;-83
2024/02/06 18:08:14;;;;;;;19.52;4.57;;;;;;;;;;4734811;30;20156;-82
2024/02/06 18:10:45;;;;;;;14.30;4.22;;;;;;;;;;4716235;30;20056;-83
2024/02/06 18:13:45;;;;;;;11.77;3.70;;;;;;;;;;4733508;30;20041;-82
2024/02/06 18:19:00;;;;;;;9.00;2.45;;;;;;;;;;4734528;30;20048;-83
2024/02/06 18:21:55;;;;;;;13.40;2.33;;;;;;;;;;4736582;30;20108;-83
2024/02/06 18:27:22;;;;;;;9.15;2.22;;;;;;;;;;4748940;28;20113;-86
2024/02/06 18:46:54;;;;;;;9.07;3.53;;;;;;;;;;4187023;24;20262;-84
2024/02/06 18:49:21;;;;;;;10.18;2.55;;;;;;;;;;4736713;30;20140;-85
2024/02/06 18:51:49;;;;;;;10.73;2.92;;;;;;;;;;4736276;30;20044;-82
2024/02/06 19:03:30;;;;;;;;;;;;;;;;;;;;;
2024/02/06 19:06:02;;;;;;;16.77;2.65;;;;;;;;;;4968925;24;20064;-81
2024/02/06 19:08:31;;;;;;;21.80;2.63;;;;;;;;;;4751187;30;20483;-83
2024/02/06 19:11:12;;;;;;;5.85;2.50;;;;;;;;;;4873000;24;20071;-84
2024/02/06 19:13:45;;;;;;;6.18;2.15;;;;;;;;;;4736632;30;20036;-84
2024/02/06 19:16:13;;;;;;;13.38;3.15;;;;;;;;;;4736496;30;20097;-85
2024/02/06 19:19:08;;;;;;;8.98;3.28;;;;;;;;;;4735051;30;20032;-84
2024/02/06 19:21:33;;;;;;;11.23;3.15;;;;;;;;;;4738492;30;20048;-82
2024/02/06 19:23:59;;;;;;;12.40;5.00;;;;;;;;;;4751001;30;20030;-81
2024/02/06 19:26:25;;;;;;;11.02;3.95;;;;;;;;;;4751904;30;20372;-82
2024/02/06 19:28:51;;;;;;;31.10;7.18;;;;;;;;;;4735740;30;20028;-82
2024/02/06 19:31:17;;;;;;;20.33;6.35;;;;;;;;;;4735019;30;20044;-81
2024/02/06 19:33:45;;;;;;;18.08;5.90;;;;;;;;;;4735757;30;20119;-82
2024/02/06 19:36:11;;;;;;;21.23;6.35;;;;;;;;;;4737040;30;20044;-81
2024/02/06 19:38:37;;;;;;;12.75;5.25;;;;;;;;;;4746498;30;20042;-81
2024/02/06 19:41:03;;;;;;;9.77;3.92;;;;;;;;;;4750360;30;20169;-82
2024/02/06 19:43:29;;;;;;;12.40;4.20;;;;;;;;;;4727508;30;20032;-82
2024/02/06 19:45:55;;;;;;;17.15;3.50;;;;;;;;;;4752015;30;20382;-82
2024/02/06 19:48:22;;;;;;;13.23;4.57;;;;;;;;;;4726156;30;20040;-83
2024/02/06 19:50:52;;;;;;;16.85;3.97;;;;;;;;;;4727740;30;20047;-83
2024/02/06 19:53:18;;;;;;;23.90;5.75;;;;;;;;;;4740971;30;20036;-83
2024/02/06 19:55:45;;;;;;;18.00;5.05;;;;;;;;;;4727477;30;20095;-82
2024/02/06 19:58:11;;;;;;;12.85;4.07;;;;;;;;;;4735795;30;20051;-82
2024/02/06 20:00:37;;;;;;;14.25;4.57;;;;;;;;;;4747076;30;20472;-84
2024/02/06 20:03:04;;;;;;;17.15;4.70;;;;;;;;;;4739540;30;20048;-83
2024/02/06 20:05:30;;;;;;;15.02;3.67;;;;;;;;;;4750729;30;20119;-84
2024/02/06 20:10:58;;;;;;;11.45;3.38;;;;;;;;;;4760537;30;20060;-83
2024/02/06 20:13:25;;;;;;;7.57;3.08;;;;;;;;;;4759734;30;20043;-83
2024/02/06 20:16:21;;;;;;;14.23;4.13;;;;;;;;;;4755709;30;20090;-84
2024/02/06 20:19:41;;;;;;;;;;;;;;;;;;;;;
2024/02/06 20:22:08;;;;;;;18.10;3.20;;;;;;;;;;4672587;30;20060;-83
2024/02/06 20:24:34;;;;;;;10.05;3.17;;;;;;;;;;4730650;30;20055;-83
